Time;durP1;ratioP1;P1;durP2;ratioP2;P2;SDS_P1;SDS_P2;PMS_P1;PMS_P2;Temp;Humidity;BMP_temperature;BMP_pressure;BME280_temperature;BME280_humidity;BME280_pressure;Samples;Min_cycle;Max_cycle;Signal;HPM_P1;HPM_P2
2022/01/07 00:00:47;;;;;;;26.17;10.50;;;-1.40;99.90;;;;;;5042083;28;20196;-60
2022/01/07 00:03:14;;;;;;;22.90;11.30;;;-1.40;99.90;;;;;;5011843;28;20189;-59
2022/01/07 00:05:40;;;;;;;20.83;10.20;;;-1.40;99.90;;;;;;5022071;28;20966;-60
2022/01/07 00:08:06;;;;;;;25.13;9.97;;;-1.40;99.90;;;;;;5007656;28;20522;-61
2022/01/07 00:10:32;;;;;;;30.37;11.90;;;-1.50;99.90;;;;;;5022644;28;21143;-59
2022/01/07 00:12:58;;;;;;;27.30;11.40;;;-1.50;99.90;;;;;;5008635;28;20621;-60
2022/01/07 00:15:24;;;;;;;32.33;11.80;;;-1.50;99.90;;;;;;5024249;28;20445;-59
2022/01/07 00:17:50;;;;;;;27.30;11.10;;;-1.50;99.90;;;;;;5026259;28;20215;-59
2022/01/07 00:20:16;;;;;;;36.57;11.13;;;-1.50;99.90;;;;;;5023503;28;20524;-58
2022/01/07 00:22:44;;;;;;;26.03;11.23;;;-1.50;99.90;;;;;;5024868;28;20439;-59
2022/01/07 00:25:12;;;;;;;24.70;11.10;;;-1.50;99.90;;;;;;5022582;28;20573;-59
2022/01/07 00:27:39;;;;;;;25.87;11.80;;;-1.40;99.90;;;;;;5022047;28;21057;-59
2022/01/07 00:30:07;;;;;;;26.00;11.87;;;-1.50;99.90;;;;;;5006755;28;20467;-58
2022/01/07 00:32:33;;;;;;;40.33;12.73;;;-1.50;99.90;;;;;;5024831;28;20432;-59
2022/01/07 00:34:58;;;;;;;23.10;10.60;;;-1.40;99.90;;;;;;5027994;28;20437;-61
2022/01/07 00:37:24;;;;;;;29.13;11.47;;;-1.40;99.90;;;;;;5030862;28;20197;-58
2022/01/07 00:39:50;;;;;;;31.03;11.10;;;-1.40;99.90;;;;;;5028727;28;20898;-58
2022/01/07 00:42:16;;;;;;;23.60;11.07;;;-1.40;99.90;;;;;;5021066;28;20204;-58
2022/01/07 00:44:42;;;;;;;34.00;11.57;;;-1.40;99.90;;;;;;5026827;28;20182;-58
2022/01/07 00:47:07;;;;;;;25.43;11.63;;;-1.40;99.90;;;;;;5028481;28;20172;-58
2022/01/07 00:49:33;;;;;;;24.80;10.97;;;-1.40;99.90;;;;;;5039048;28;20489;-59
2022/01/07 00:52:01;;;;;;;23.13;10.83;;;-1.40;99.90;;;;;;5029826;28;20177;-60
2022/01/07 00:54:27;;;;;;;28.50;11.70;;;-1.30;99.90;;;;;;5032038;28;20174;-58
2022/01/07 00:56:52;;;;;;;22.33;10.10;;;-1.30;99.90;;;;;;5035121;28;20466;-59
2022/01/07 00:59:18;;;;;;;22.80;11.20;;;-1.30;99.90;;;;;;5028123;28;20428;-59
2022/01/07 01:01:44;;;;;;;28.50;11.33;;;-1.30;99.90;;;;;;5023487;28;20227;-58
2022/01/07 01:04:10;;;;;;;26.13;10.63;;;-1.30;99.90;;;;;;5020338;28;20181;-57
2022/01/07 01:06:40;;;;;;;24.43;10.13;;;-1.30;99.90;;;;;;5019953;28;20930;-60
2022/01/07 01:09:07;;;;;;;18.83;10.03;;;-1.30;99.90;;;;;;5022374;28;20177;-58
2022/01/07 01:11:32;;;;;;;20.77;10.03;;;-1.30;99.90;;;;;;5006264;28;21053;-59
2022/01/07 01:13:58;;;;;;;24.73;11.20;;;-1.30;99.90;;;;;;5027127;28;20524;-59
2022/01/07 01:16:24;;;;;;;23.90;10.90;;;-1.30;99.90;;;;;;5027544;28;20173;-59
2022/01/07 01:18:49;;;;;;;24.90;9.53;;;-1.30;99.90;;;;;;5027493;28;20459;-59
2022/01/07 01:21:15;;;;;;;18.10;8.70;;;-1.30;99.90;;;;;;5027558;28;20243;-59
2022/01/07 01:23:44;;;;;;;19.00;9.63;;;-1.30;99.90;;;;;;5027789;28;20169;-58
2022/01/07 01:26:11;;;;;;;19.23;9.70;;;-1.30;99.90;;;;;;5025589;28;20587;-59
2022/01/07 01:28:37;;;;;;;26.87;10.67;;;-1.30;99.90;;;;;;5023905;28;20516;-59
2022/01/07 01:31:02;;;;;;;23.80;11.00;;;-1.30;99.90;;;;;;5027375;28;20543;-59
2022/01/07 01:33:28;;;;;;;27.77;10.30;;;-1.30;99.90;;;;;;5028170;28;20189;-57
2022/01/07 01:35:53;;;;;;;23.10;10.30;;;-1.30;99.90;;;;;;5027321;28;20286;-59
2022/01/07 01:38:19;;;;;;;19.90;10.07;;;-1.30;99.90;;;;;;5028574;28;20591;-59
2022/01/07 01:40:45;;;;;;;25.23;10.60;;;-1.30;99.90;;;;;;5027397;28;20207;-59
2022/01/07 01:43:11;;;;;;;18.93;9.80;;;-1.20;99.90;;;;;;5027932;28;20499;-59
2022/01/07 01:45:36;;;;;;;29.90;10.20;;;-1.20;99.90;;;;;;5027604;28;20196;-59
2022/01/07 01:48:02;;;;;;;21.70;9.97;;;-1.20;99.90;;;;;;5002011;28;20197;-59
2022/01/07 01:50:28;;;;;;;26.63;11.40;;;-1.20;99.90;;;;;;5028496;28;20200;-59
2022/01/07 01:52:55;;;;;;;22.10;9.53;;;-1.10;99.90;;;;;;5007876;28;20185;-59
2022/01/07 01:55:24;;;;;;;23.53;10.03;;;-1.10;99.90;;;;;;5026289;28;20207;-59
2022/01/07 01:57:50;;;;;;;23.27;10.27;;;-1.10;99.90;;;;;;5029082;28;20505;-59
2022/01/07 02:00:16;;;;;;;23.03;10.23;;;-1.00;99.90;;;;;;5006742;28;20444;-59
2022/01/07 02:02:42;;;;;;;30.30;10.53;;;-1.00;99.90;;;;;;5027482;28;20515;-59
2022/01/07 02:05:08;;;;;;;29.40;11.20;;;-1.00;99.90;;;;;;5009557;28;20415;-56
2022/01/07 02:07:35;;;;;;;23.10;9.60;;;-1.00;99.90;;;;;;5026076;28;20720;-59
2022/01/07 02:10:06;;;;;;;27.33;12.33;;;-1.00;99.90;;;;;;5006777;28;20478;-58
2022/01/07 02:12:32;;;;;;;22.53;9.87;;;-1.00;99.90;;;;;;5005675;28;20411;-59
2022/01/07 02:14:58;;;;;;;27.70;10.27;;;-1.00;99.90;;;;;;5026355;28;20711;-60
2022/01/07 02:17:25;;;;;;;23.10;9.87;;;-1.00;99.90;;;;;;5026532;28;20182;-59
2022/01/07 02:19:51;;;;;;;21.87;10.40;;;-1.00;99.90;;;;;;5026105;28;20654;-58
2022/01/07 02:22:18;;;;;;;22.73;11.70;;;-0.90;99.90;;;;;;5004799;28;20460;-59
2022/01/07 02:24:48;;;;;;;17.20;9.40;;;-0.90;99.90;;;;;;5005717;28;20744;-59
2022/01/07 02:27:15;;;;;;;20.80;11.03;;;-0.90;99.90;;;;;;5031276;28;20435;-59
2022/01/07 02:29:43;;;;;;;17.43;9.70;;;-0.90;99.90;;;;;;5029839;28;20442;-59
2022/01/07 02:32:09;;;;;;;18.43;10.23;;;-0.80;99.90;;;;;;5013793;28;20424;-59
2022/01/07 02:34:35;;;;;;;20.97;10.40;;;-0.80;99.90;;;;;;5030954;28;20730;-57
2022/01/07 02:37:01;;;;;;;22.30;10.60;;;-0.80;99.90;;;;;;5033581;28;20432;-59
2022/01/07 02:39:27;;;;;;;21.77;10.80;;;-0.70;99.90;;;;;;5029551;28;20434;-59
2022/01/07 02:41:52;;;;;;;17.03;9.87;;;-0.70;99.90;;;;;;5029516;28;20664;-60
2022/01/07 02:44:18;;;;;;;17.23;10.07;;;-0.70;99.90;;;;;;5013234;28;20170;-59
2022/01/07 02:46:45;;;;;;;20.80;10.80;;;-0.70;99.90;;;;;;5031118;28;20170;-59
2022/01/07 02:49:13;;;;;;;29.80;12.60;;;-0.70;99.90;;;;;;5031388;28;20220;-58
2022/01/07 02:51:39;;;;;;;20.47;11.10;;;-0.60;99.90;;;;;;5009457;28;20490;-60
2022/01/07 02:54:06;;;;;;;24.57;10.80;;;-0.60;99.90;;;;;;5009849;28;20499;-59
2022/01/07 02:56:32;;;;;;;17.20;9.87;;;-0.60;99.90;;;;;;5021678;28;20522;-59
2022/01/07 02:58:58;;;;;;;24.00;10.77;;;-0.60;99.90;;;;;;5028710;28;21136;-61
2022/01/07 03:01:24;;;;;;;19.47;9.50;;;-0.60;99.90;;;;;;5025316;28;20459;-59
2022/01/07 03:03:49;;;;;;;17.97;10.70;;;-0.60;99.90;;;;;;5028662;28;20190;-59
2022/01/07 03:06:16;;;;;;;22.63;10.87;;;-0.60;99.90;;;;;;5027989;28;20668;-59
2022/01/07 03:08:46;;;;;;;20.23;10.53;;;-0.60;99.90;;;;;;5005837;28;20225;-59
2022/01/07 03:11:11;;;;;;;21.13;10.80;;;-0.60;99.90;;;;;;5028043;28;20774;-58
2022/01/07 03:13:37;;;;;;;28.07;12.23;;;-0.60;99.90;;;;;;5027849;28;20442;-58
2022/01/07 03:16:03;;;;;;;19.73;10.77;;;-0.60;99.90;;;;;;5010599;28;20172;-60
2022/01/07 03:18:29;;;;;;;19.43;9.87;;;-0.60;99.90;;;;;;5029039;28;20181;-57
2022/01/07 03:20:54;;;;;;;15.30;9.33;;;-0.60;99.90;;;;;;5028752;28;20783;-59
2022/01/07 03:23:20;;;;;;;23.67;10.47;;;-0.60;99.90;;;;;;5028838;28;20212;-59
2022/01/07 03:25:46;;;;;;;20.17;10.53;;;-0.60;99.90;;;;;;5006881;28;20548;-59
2022/01/07 03:28:12;;;;;;;22.27;10.33;;;-0.60;99.90;;;;;;5025168;28;20181;-60
2022/01/07 03:30:38;;;;;;;22.90;12.00;;;-0.60;99.90;;;;;;5024509;28;20211;-59
2022/01/07 03:33:05;;;;;;;25.60;10.60;;;-0.60;99.90;;;;;;5027676;28;20812;-59
2022/01/07 03:35:31;;;;;;;21.83;11.23;;;-0.70;99.90;;;;;;5024351;28;20186;-58
2022/01/07 03:37:57;;;;;;;19.90;11.07;;;-0.70;99.90;;;;;;5024753;28;21685;-60
2022/01/07 03:40:22;;;;;;;17.43;10.40;;;-0.70;99.90;;;;;;5024573;28;20193;-59
2022/01/07 03:42:49;;;;;;;20.27;10.40;;;-0.70;99.90;;;;;;5007935;28;20177;-58
2022/01/07 03:45:16;;;;;;;19.43;10.40;;;-0.70;99.90;;;;;;5026081;28;20173;-59
2022/01/07 03:47:42;;;;;;;22.37;12.27;;;-0.70;99.90;;;;;;5026387;28;20436;-59
2022/01/07 03:50:11;;;;;;;21.50;11.03;;;-0.70;99.90;;;;;;5025034;28;20490;-59
2022/01/07 03:52:38;;;;;;;18.23;11.07;;;-0.70;99.90;;;;;;5026749;28;20803;-58
2022/01/07 03:55:07;;;;;;;20.27;10.70;;;-0.60;99.90;;;;;;5024277;28;20424;-59
2022/01/07 03:57:32;;;;;;;20.87;10.40;;;-0.60;99.90;;;;;;5021262;28;20440;-59
2022/01/07 03:59:58;;;;;;;21.13;10.03;;;-0.60;99.90;;;;;;5025604;28;20518;-59
2022/01/07 04:02:24;;;;;;;18.27;10.10;;;-0.60;99.90;;;;;;5024810;28;20212;-59
2022/01/07 04:04:50;;;;;;;20.23;10.43;;;-0.60;99.90;;;;;;5024878;28;20255;-59
2022/01/07 04:07:15;;;;;;;21.50;10.30;;;-0.60;99.90;;;;;;5027218;28;20956;-59
2022/01/07 04:09:41;;;;;;;18.87;9.57;;;-0.70;99.90;;;;;;5026748;28;20182;-60
2022/01/07 04:12:07;;;;;;;20.00;10.40;;;-0.70;99.90;;;;;;5024466;28;20193;-59
2022/01/07 04:14:33;;;;;;;17.47;9.20;;;-0.70;99.90;;;;;;5027601;28;20177;-60
2022/01/07 04:16:59;;;;;;;16.30;9.13;;;-0.80;99.90;;;;;;5008774;28;20502;-59
2022/01/07 04:19:25;;;;;;;15.33;8.60;;;-0.80;99.90;;;;;;5027716;28;20710;-59
2022/01/07 04:21:50;;;;;;;15.73;9.10;;;-0.80;99.90;;;;;;5025060;28;20205;-59
2022/01/07 04:24:17;;;;;;;16.80;9.20;;;-0.80;99.90;;;;;;5024844;28;20210;-59
2022/01/07 04:26:42;;;;;;;20.17;9.30;;;-0.80;99.90;;;;;;5025924;28;20536;-59
2022/01/07 04:29:08;;;;;;;16.40;9.07;;;-0.70;99.90;;;;;;5007480;28;20443;-61
2022/01/07 04:31:34;;;;;;;17.60;8.27;;;-0.70;99.90;;;;;;5022938;28;20691;-60
2022/01/07 04:34:00;;;;;;;16.30;8.87;;;-0.70;99.90;;;;;;5024622;28;20181;-61
2022/01/07 04:36:25;;;;;;;15.57;8.27;;;-0.70;99.90;;;;;;5027891;28;20869;-59
2022/01/07 04:38:51;;;;;;;14.00;8.40;;;-0.70;99.90;;;;;;5026473;28;20537;-59
2022/01/07 04:41:17;;;;;;;16.30;8.97;;;-0.70;99.90;;;;;;5024182;28;20215;-60
2022/01/07 04:43:43;;;;;;;16.57;8.97;;;-0.70;99.90;;;;;;5005272;28;20939;-59
2022/01/07 04:46:08;;;;;;;15.53;7.80;;;-0.70;99.90;;;;;;5024283;28;20184;-62
2022/01/07 04:48:34;;;;;;;11.33;7.07;;;-0.70;99.90;;;;;;5025083;28;20178;-59
2022/01/07 04:51:00;;;;;;;12.60;7.90;;;-0.70;99.90;;;;;;5023544;28;20198;-59
2022/01/07 04:53:26;;;;;;;14.20;9.77;;;-0.70;99.90;;;;;;5024133;28;20173;-59
2022/01/07 04:55:53;;;;;;;17.77;8.27;;;-0.70;99.90;;;;;;5024836;28;20523;-58
2022/01/07 04:58:19;;;;;;;14.23;8.10;;;-0.70;99.90;;;;;;5026000;28;20429;-59
2022/01/07 05:00:45;;;;;;;16.10;9.40;;;-0.70;99.90;;;;;;5023058;28;20472;-56
2022/01/07 05:03:13;;;;;;;16.10;8.57;;;-0.70;99.90;;;;;;5023790;28;20898;-59
2022/01/07 05:05:40;;;;;;;14.70;7.10;;;-0.70;99.90;;;;;;5023015;28;20438;-59
2022/01/07 05:08:06;;;;;;;14.60;8.27;;;-0.70;99.90;;;;;;5025243;28;20525;-59
2022/01/07 05:10:32;;;;;;;16.53;7.80;;;-0.70;99.90;;;;;;5025499;28;20559;-60
2022/01/07 05:12:58;;;;;;;17.27;7.90;;;-0.80;99.90;;;;;;5025326;28;20209;-59
2022/01/07 05:15:24;;;;;;;16.50;8.20;;;-0.80;99.90;;;;;;5024561;28;20974;-60
2022/01/07 05:17:50;;;;;;;15.60;7.50;;;-0.80;99.90;;;;;;5023825;28;20269;-59
2022/01/07 05:20:16;;;;;;;14.50;8.00;;;-0.80;99.90;;;;;;5025215;28;20456;-59
2022/01/07 05:22:43;;;;;;;18.00;7.90;;;-0.80;99.90;;;;;;5026496;28;20918;-60
2022/01/07 05:25:11;;;;;;;14.87;7.70;;;-0.80;99.90;;;;;;5026364;28;20424;-59
2022/01/07 05:27:37;;;;;;;13.00;7.70;;;-0.80;99.90;;;;;;5025460;28;20425;-59
2022/01/07 05:30:05;;;;;;;17.53;6.70;;;-0.90;99.90;;;;;;5024513;28;20490;-59
2022/01/07 05:32:31;;;;;;;13.20;7.63;;;-0.90;99.90;;;;;;5004709;28;20482;-60
2022/01/07 05:34:56;;;;;;;12.87;7.63;;;-0.90;99.90;;;;;;5025511;28;20436;-60
2022/01/07 05:37:22;;;;;;;14.77;7.33;;;-0.90;99.90;;;;;;5025123;28;20170;-59
2022/01/07 05:39:48;;;;;;;12.73;6.60;;;-0.90;99.90;;;;;;5024573;28;20201;-59
2022/01/07 05:42:14;;;;;;;10.20;6.80;;;-0.90;99.90;;;;;;5026155;28;20288;-59
2022/01/07 05:44:39;;;;;;;15.03;7.40;;;-0.90;99.90;;;;;;5023351;28;20182;-59
2022/01/07 05:47:05;;;;;;;15.00;7.37;;;-0.90;99.90;;;;;;5023573;28;20214;-59
2022/01/07 05:49:31;;;;;;;11.77;7.27;;;-0.90;99.90;;;;;;5007625;28;20181;-59
2022/01/07 05:51:57;;;;;;;10.17;6.53;;;-0.80;99.90;;;;;;5005137;28;20957;-59
2022/01/07 05:54:23;;;;;;;8.63;5.97;;;-0.90;99.90;;;;;;5023509;28;20652;-59
2022/01/07 05:56:48;;;;;;;14.20;7.67;;;-0.90;99.90;;;;;;5024973;28;20849;-59
2022/01/07 05:59:14;;;;;;;10.23;6.20;;;-0.90;99.90;;;;;;5023266;28;20854;-58
2022/01/07 06:01:40;;;;;;;12.27;6.60;;;-0.80;99.90;;;;;;5022980;28;20436;-59
2022/01/07 06:04:05;;;;;;;13.13;6.33;;;-0.80;99.90;;;;;;5024131;28;20224;-59
2022/01/07 06:06:31;;;;;;;15.53;6.67;;;-0.80;99.90;;;;;;5025914;28;20177;-59
2022/01/07 06:08:57;;;;;;;10.93;6.40;;;-0.80;99.90;;;;;;5006106;28;20189;-58
2022/01/07 06:11:22;;;;;;;11.10;5.80;;;-0.80;99.90;;;;;;5023756;28;20203;-59
2022/01/07 06:13:48;;;;;;;13.57;7.57;;;-0.80;99.90;;;;;;5024016;28;20706;-60
2022/01/07 06:16:13;;;;;;;13.40;7.27;;;-0.80;99.90;;;;;;5024932;28;20573;-59
2022/01/07 06:18:53;;;;;;;15.17;6.27;;;-0.90;99.90;;;;;;5025272;28;20264;-59
2022/01/07 06:21:19;;;;;;;7.93;5.70;;;-0.80;99.90;;;;;;5006398;28;20583;-60
2022/01/07 06:23:45;;;;;;;10.77;6.40;;;-0.80;99.90;;;;;;5024465;28;20504;-59
2022/01/07 06:26:11;;;;;;;8.73;6.20;;;-0.90;99.90;;;;;;5024041;28;20511;-59
2022/01/07 06:28:36;;;;;;;13.07;7.00;;;-0.90;99.90;;;;;;5007141;28;20186;-59
2022/01/07 06:31:02;;;;;;;12.20;6.93;;;-0.90;99.90;;;;;;5023316;28;20311;-59
2022/01/07 06:33:27;;;;;;;15.43;7.20;;;-0.80;99.90;;;;;;5008330;28;20545;-59
2022/01/07 06:35:53;;;;;;;10.87;6.80;;;-0.80;99.90;;;;;;5008877;28;20620;-59
2022/01/07 06:38:19;;;;;;;20.97;8.50;;;-0.80;99.90;;;;;;5006313;28;20646;-59
2022/01/07 06:40:44;;;;;;;15.93;7.43;;;-0.80;99.90;;;;;;5023666;28;20210;-60
2022/01/07 06:43:10;;;;;;;12.43;7.07;;;-0.80;99.90;;;;;;5023887;28;20212;-60
2022/01/07 06:45:35;;;;;;;15.47;7.33;;;-0.80;99.90;;;;;;5025842;28;20169;-60
2022/01/07 06:48:01;;;;;;;10.83;6.57;;;-0.80;99.90;;;;;;5028091;23;20243;-60
2022/01/07 06:50:27;;;;;;;11.60;6.30;;;-0.80;99.90;;;;;;5018708;28;20182;-56
2022/01/07 06:52:52;;;;;;;12.17;6.07;;;-0.80;99.90;;;;;;5024482;28;20550;-55
2022/01/07 06:55:18;;;;;;;12.30;6.67;;;-0.70;99.90;;;;;;5022971;28;20185;-56
2022/01/07 06:57:44;;;;;;;11.93;6.37;;;-0.70;99.90;;;;;;5021482;28;20190;-56
2022/01/07 07:00:10;;;;;;;10.50;7.30;;;-0.70;99.90;;;;;;5000871;28;20293;-55
2022/01/07 07:02:36;;;;;;;10.20;7.00;;;-0.70;99.90;;;;;;5004775;28;20262;-54
2022/01/07 07:05:01;;;;;;;11.33;6.60;;;-0.80;99.90;;;;;;5003554;28;20840;-57
2022/01/07 07:07:27;;;;;;;10.80;6.70;;;-0.70;99.90;;;;;;4994307;28;20197;-57
2022/01/07 07:09:53;;;;;;;13.57;7.10;;;-0.80;99.90;;;;;;4998278;28;20233;-56
2022/01/07 07:12:18;;;;;;;12.00;7.73;;;-0.80;99.90;;;;;;5007947;28;20189;-56
2022/01/07 07:14:44;;;;;;;15.83;7.67;;;-0.70;99.90;;;;;;5005793;28;20954;-56
2022/01/07 07:17:12;;;;;;;18.57;6.80;;;-0.80;99.90;;;;;;5004867;28;20185;-54
2022/01/07 07:19:38;;;;;;;17.17;7.77;;;-0.70;99.90;;;;;;4983097;28;20207;-55
2022/01/07 07:22:03;;;;;;;17.40;8.80;;;-0.70;99.90;;;;;;5004726;28;20532;-53
2022/01/07 07:24:29;;;;;;;15.87;8.00;;;-0.70;99.90;;;;;;5005602;28;21211;-54
2022/01/07 07:26:55;;;;;;;14.80;8.30;;;-0.60;99.90;;;;;;5005485;28;20179;-55
2022/01/07 07:29:20;;;;;;;21.10;8.67;;;-0.60;99.90;;;;;;5003946;28;20680;-55
2022/01/07 07:31:50;;;;;;;16.63;9.33;;;-0.60;99.90;;;;;;5001631;28;20174;-55
2022/01/07 07:36:41;;;;;;;17.70;9.00;;;-0.60;99.90;;;;;;5003887;28;20503;-53
2022/01/07 07:39:09;;;;;;;16.93;8.00;;;-0.50;99.90;;;;;;5004403;28;20597;-53
2022/01/07 07:41:37;;;;;;;18.77;8.87;;;-0.50;99.90;;;;;;5002051;28;20714;-55
2022/01/07 07:44:04;;;;;;;12.90;8.33;;;-0.50;99.90;;;;;;5002897;28;20432;-54
2022/01/07 07:46:32;;;;;;;17.27;9.10;;;-0.50;99.90;;;;;;5002236;28;20431;-55
2022/01/07 07:49:01;;;;;;;15.70;8.20;;;-0.50;99.90;;;;;;5000309;28;21026;-55
2022/01/07 07:51:28;;;;;;;20.53;9.17;;;-0.40;99.90;;;;;;5002944;28;20437;-62
2022/01/07 07:53:55;;;;;;;15.23;8.63;;;-0.40;99.90;;;;;;5004075;28;20472;-56
2022/01/07 07:56:21;;;;;;;22.33;10.87;;;-0.30;99.90;;;;;;5003709;28;20442;-55
2022/01/07 07:58:47;;;;;;;20.13;10.30;;;-0.30;99.90;;;;;;5004325;28;20467;-55
2022/01/07 08:01:13;;;;;;;16.27;8.73;;;-0.30;99.90;;;;;;5002929;28;20860;-58
2022/01/07 08:03:40;;;;;;;18.63;9.70;;;-0.20;99.90;;;;;;5001906;28;20441;-56
2022/01/07 08:06:06;;;;;;;20.57;10.40;;;-0.20;99.90;;;;;;4999864;28;20194;-57
2022/01/07 08:08:33;;;;;;;19.87;9.50;;;-0.20;99.90;;;;;;5001584;28;20461;-53
2022/01/07 08:11:03;;;;;;;16.07;9.57;;;-0.10;99.90;;;;;;5003377;28;20449;-55
2022/01/07 08:15:58;;;;;;;18.93;9.03;;;-0.10;99.90;;;;;;5000024;28;20528;-53
2022/01/07 08:16:23;;;;;;;16.10;10.37;;;-0.10;99.90;;;;;;4999954;28;20462;-55
2022/01/07 08:18:51;;;;;;;23.70;10.80;;;0.00;99.90;;;;;;5006806;28;20712;-53
2022/01/07 08:21:17;;;;;;;13.77;8.50;;;0.00;99.90;;;;;;5004794;28;20873;-55
2022/01/07 08:23:44;;;;;;;18.67;10.37;;;0.00;99.90;;;;;;5003532;28;20809;-55
2022/01/07 08:26:12;;;;;;;20.40;10.90;;;0.00;99.90;;;;;;5003904;28;21013;-55
2022/01/07 08:28:46;;;;;;;20.27;10.50;;;0.00;99.90;;;;;;5016421;28;20525;-56
2022/01/07 08:36:30;;;;;;;22.23;9.03;;;0.00;99.90;;;;;;5010801;28;20445;-54
2022/01/07 08:38:56;;;;;;;19.13;10.53;;;0.10;99.90;;;;;;5018443;28;20472;-56
2022/01/07 08:41:25;;;;;;;17.47;10.17;;;0.10;99.90;;;;;;5010513;28;20465;-55
2022/01/07 08:43:50;;;;;;;20.10;10.00;;;0.10;99.90;;;;;;5008093;28;20432;-55
2022/01/07 08:46:17;;;;;;;21.27;12.20;;;0.10;99.90;;;;;;5010149;28;20425;-53
2022/01/07 08:48:43;;;;;;;19.43;10.27;;;0.10;99.90;;;;;;5010439;28;20206;-55
2022/01/07 08:51:09;;;;;;;19.33;10.07;;;0.10;99.90;;;;;;5006151;28;20500;-53
2022/01/07 08:53:35;;;;;;;20.13;11.10;;;0.00;99.90;;;;;;5014056;28;20431;-55
2022/01/07 08:56:01;;;;;;;19.80;10.50;;;0.00;99.90;;;;;;5033964;28;20444;-55
2022/01/07 08:58:27;;;;;;;21.27;11.73;;;0.00;99.90;;;;;;5013006;28;20540;-53
2022/01/07 09:00:53;;;;;;;21.97;11.17;;;0.00;99.90;;;;;;5011962;28;20533;-54
2022/01/07 09:03:19;;;;;;;17.23;10.80;;;0.10;99.90;;;;;;4998351;28;20447;-55
2022/01/07 09:05:44;;;;;;;19.73;9.83;;;0.00;99.90;;;;;;5026100;28;20194;-54
2022/01/07 09:08:12;;;;;;;19.30;10.77;;;0.00;99.90;;;;;;5027294;28;20211;-54
2022/01/07 09:10:38;;;;;;;20.43;10.37;;;0.00;99.90;;;;;;5019463;28;20182;-54
2022/01/07 09:13:04;;;;;;;22.83;11.23;;;0.00;99.90;;;;;;5005367;28;20460;-54
2022/01/07 09:15:30;;;;;;;17.20;11.10;;;-0.10;99.90;;;;;;5022616;28;20440;-54
2022/01/07 09:17:55;;;;;;;25.20;10.60;;;-0.10;99.90;;;;;;5013091;28;20500;-53
2022/01/07 09:20:21;;;;;;;19.67;9.40;;;-0.10;99.90;;;;;;5003043;28;20209;-54
2022/01/07 09:22:49;;;;;;;18.70;9.50;;;-0.10;99.90;;;;;;5008069;28;20260;-53
2022/01/07 09:25:15;;;;;;;20.10;11.10;;;0.00;99.90;;;;;;5002818;28;20438;-54
2022/01/07 09:27:41;;;;;;;18.60;10.80;;;0.00;99.90;;;;;;4988455;28;20813;-54
2022/01/07 09:30:09;;;;;;;17.33;10.00;;;0.00;99.90;;;;;;5012913;28;20453;-53
2022/01/07 09:32:34;;;;;;;19.87;10.50;;;0.10;99.90;;;;;;5017071;28;20429;-60
2022/01/07 09:35:00;;;;;;;17.47;10.30;;;0.10;99.90;;;;;;5022503;28;20445;-55
2022/01/07 09:37:26;;;;;;;17.63;9.70;;;0.10;99.90;;;;;;4992390;28;20179;-54
2022/01/07 09:39:51;;;;;;;15.23;9.27;;;0.10;99.90;;;;;;4997645;28;20510;-56
2022/01/07 09:42:17;;;;;;;15.10;9.00;;;0.20;99.90;;;;;;5030616;28;20289;-56
2022/01/07 09:44:44;;;;;;;20.57;9.97;;;0.20;99.90;;;;;;5026529;28;20160;-56
2022/01/07 09:47:12;;;;;;;16.23;9.53;;;0.20;99.90;;;;;;5010783;28;20186;-55
2022/01/07 09:49:38;;;;;;;17.60;9.07;;;0.30;99.90;;;;;;5009192;28;20445;-53
2022/01/07 09:52:05;;;;;;;13.37;7.60;;;0.40;99.90;;;;;;5010411;28;20468;-55
2022/01/07 09:54:33;;;;;;;15.80;9.23;;;0.40;99.90;;;;;;5016782;28;20454;-55
2022/01/07 09:56:59;;;;;;;17.37;9.70;;;0.50;99.90;;;;;;5002839;28;20443;-55
2022/01/07 09:59:25;;;;;;;12.90;8.33;;;0.40;99.90;;;;;;4998541;28;20471;-54
2022/01/07 10:02:02;;;;;;;22.50;8.83;;;0.50;99.90;;;;;;5001029;28;20206;-54
2022/01/07 10:04:33;;;;;;;15.10;7.30;;;0.40;99.90;;;;;;5001521;28;20424;-55
2022/01/07 10:07:16;;;;;;;9.00;6.97;;;0.40;99.90;;;;;;5002672;28;20445;-54
2022/01/07 10:09:56;;;;;;;10.53;6.23;;;0.40;99.90;;;;;;5011529;28;20513;-57
2022/01/07 10:12:22;;;;;;;11.33;6.80;;;0.40;99.90;;;;;;5010029;28;20487;-56
2022/01/07 10:15:15;;;;;;;12.90;6.70;;;0.40;99.90;;;;;;5002842;28;20467;-56
2022/01/07 10:17:41;;;;;;;10.37;6.77;;;0.40;99.90;;;;;;5002255;28;20445;-54
2022/01/07 10:20:07;;;;;;;12.50;7.20;;;0.40;99.90;;;;;;5006893;28;20631;-55
2022/01/07 10:23:11;;;;;;;17.53;7.10;;;0.40;99.90;;;;;;4987258;28;20469;-54
2022/01/07 10:25:39;;;;;;;10.23;6.33;;;0.40;99.90;;;;;;5003384;28;20441;-57
2022/01/07 10:28:18;;;;;;;15.83;5.97;;;0.50;99.90;;;;;;5006055;28;20541;-56
2022/01/07 10:30:49;;;;;;;11.17;5.50;;;0.50;99.90;;;;;;5006615;28;20441;-57
2022/01/07 10:33:39;;;;;;;10.60;6.23;;;0.50;99.90;;;;;;5003099;28;20441;-56
2022/01/07 10:36:08;;;;;;;10.37;6.00;;;0.50;99.90;;;;;;5005373;28;20437;-56
2022/01/07 10:38:36;;;;;;;7.90;5.00;;;0.50;99.90;;;;;;5006990;28;20492;-56
2022/01/07 10:41:03;;;;;;;11.80;6.43;;;0.50;99.90;;;;;;4997691;28;20495;-54
2022/01/07 10:43:34;;;;;;;9.17;6.13;;;0.60;99.90;;;;;;4999980;28;20788;-56
2022/01/07 10:46:12;;;;;;;9.70;5.70;;;0.50;99.90;;;;;;5007332;28;20441;-55
2022/01/07 10:48:47;;;;;;;9.10;5.73;;;0.50;99.90;;;;;;4997303;28;21132;-56
2022/01/07 10:51:26;;;;;;;9.07;5.47;;;0.50;99.90;;;;;;5004134;28;20443;-55
2022/01/07 10:54:00;;;;;;;21.03;5.23;;;0.50;99.90;;;;;;5004231;28;20465;-56
2022/01/07 10:56:35;;;;;;;12.17;6.53;;;0.50;99.90;;;;;;5004508;28;20486;-55
2022/01/07 10:59:05;;;;;;;6.77;4.83;;;0.50;99.90;;;;;;5000715;28;20506;-56
2022/01/07 11:01:50;;;;;;;10.43;5.60;;;0.50;99.90;;;;;;5005551;28;20547;-57
2022/01/07 11:04:19;;;;;;;11.87;6.60;;;0.50;99.90;;;;;;4985633;28;21139;-56
2022/01/07 11:06:47;;;;;;;13.37;6.17;;;0.50;99.90;;;;;;4990243;28;20432;-56
2022/01/07 11:09:15;;;;;;;11.70;5.73;;;0.50;99.90;;;;;;5004461;28;20448;-55
2022/01/07 11:11:55;;;;;;;8.67;6.07;;;0.50;99.90;;;;;;5004445;28;20441;-53
2022/01/07 11:14:29;;;;;;;9.30;6.73;;;0.50;99.90;;;;;;5004999;28;20441;-56
2022/01/07 11:17:03;;;;;;;12.17;7.17;;;0.50;99.90;;;;;;5002496;28;21358;-55
2022/01/07 11:19:42;;;;;;;10.20;6.83;;;0.50;99.90;;;;;;5005877;28;20456;-56
2022/01/07 11:22:14;;;;;;;12.47;6.03;;;0.60;99.90;;;;;;5002985;28;20490;-54
2022/01/07 11:24:48;;;;;;;10.87;6.83;;;0.60;99.90;;;;;;4999760;28;20492;-54
2022/01/07 11:27:15;;;;;;;8.30;5.57;;;0.50;99.90;;;;;;4985734;28;20504;-55
2022/01/07 11:29:45;;;;;;;9.67;6.53;;;0.60;99.90;;;;;;5023822;28;20463;-57
2022/01/07 11:32:26;;;;;;;14.37;6.60;;;0.60;99.90;;;;;;5029689;28;20453;-57
2022/01/07 11:34:53;;;;;;;13.30;7.23;;;0.60;99.90;;;;;;5018015;28;21010;-57
2022/01/07 11:37:40;;;;;;;10.20;7.13;;;0.60;99.90;;;;;;5000237;28;20477;-59
2022/01/07 11:40:07;;;;;;;11.60;6.50;;;0.60;99.90;;;;;;5002314;28;20927;-58
2022/01/07 11:42:41;;;;;;;8.80;5.93;;;0.60;99.90;;;;;;5000399;28;20492;-54
2022/01/07 11:45:35;;;;;;;10.50;5.83;;;0.60;99.90;;;;;;4997086;28;20424;-53
2022/01/07 11:48:15;;;;;;;11.07;6.00;;;0.60;99.90;;;;;;4999815;28;20457;-54
2022/01/07 11:50:58;;;;;;;10.77;6.50;;;0.50;99.90;;;;;;5000592;28;20433;-54
2022/01/07 11:53:25;;;;;;;15.10;7.50;;;0.50;99.90;;;;;;4990251;28;20444;-54
2022/01/07 11:55:51;;;;;;;10.80;6.80;;;0.40;99.90;;;;;;4999970;28;20433;-53
2022/01/07 11:58:17;;;;;;;11.07;6.93;;;0.40;99.90;;;;;;4983786;28;20858;-55
2022/01/07 12:01:03;;;;;;;13.93;7.23;;;0.40;99.90;;;;;;5000068;28;20426;-54
2022/01/07 12:03:29;;;;;;;12.10;7.20;;;0.40;99.90;;;;;;5008503;28;20512;-55
2022/01/07 12:05:55;;;;;;;16.70;7.00;;;0.50;99.90;;;;;;5002563;28;20430;-56
2022/01/07 12:08:40;;;;;;;15.00;8.30;;;0.50;99.90;;;;;;5017313;28;20288;-56
2022/01/07 12:11:10;;;;;;;13.63;6.70;;;0.50;99.90;;;;;;5023065;28;20938;-55
2022/01/07 12:13:40;;;;;;;17.33;7.90;;;0.50;99.90;;;;;;4985839;28;20902;-58
2022/01/07 12:16:07;;;;;;;12.03;7.10;;;0.50;99.90;;;;;;4990064;28;20832;-56
2022/01/07 12:18:33;;;;;;;13.70;7.33;;;0.50;99.90;;;;;;5002273;28;20464;-54
2022/01/07 12:20:59;;;;;;;9.67;7.10;;;0.50;99.90;;;;;;4998903;28;20500;-55
2022/01/07 12:23:25;;;;;;;12.80;7.73;;;0.50;99.90;;;;;;4997841;28;20445;-56
2022/01/07 12:25:53;;;;;;;16.83;7.70;;;0.60;99.90;;;;;;4993832;28;20183;-55
2022/01/07 12:28:20;;;;;;;14.97;7.37;;;0.60;99.90;;;;;;5015295;28;20200;-56
2022/01/07 12:30:47;;;;;;;13.27;6.97;;;0.60;99.90;;;;;;5005690;28;20512;-53
2022/01/07 12:33:13;;;;;;;11.40;7.20;;;0.50;99.90;;;;;;5003430;28;20484;-56
2022/01/07 12:35:41;;;;;;;11.07;6.90;;;0.50;99.90;;;;;;5000566;28;20441;-55
2022/01/07 12:38:11;;;;;;;14.10;7.43;;;0.50;99.90;;;;;;5004197;28;20194;-53
2022/01/07 12:40:37;;;;;;;16.90;7.90;;;0.40;99.90;;;;;;5001963;28;20441;-56
2022/01/07 12:43:03;;;;;;;11.67;6.83;;;0.40;99.90;;;;;;4984784;28;20448;-56
2022/01/07 12:45:30;;;;;;;12.17;7.00;;;0.40;99.90;;;;;;5006939;28;20198;-58
2022/01/07 12:50:30;;;;;;;13.10;6.37;;;0.40;99.90;;;;;;5043966;23;20494;-60